sensor_id;sensor_type;location;lat;lon;timestamp;temperature;humidity
11615;DHT22;5863;52.832;4.758;2023-12-20T00:00:15;8.40;99.90
11615;DHT22;5863;52.832;4.758;2023-12-20T00:02:42;8.40;99.90
11615;DHT22;5863;52.832;4.758;2023-12-20T00:05:12;8.40;99.90
11615;DHT22;5863;52.832;4.758;2023-12-20T00:07:39;8.40;99.90
11615;DHT22;5863;52.832;4.758;2023-12-20T00:10:07;8.50;99.90
11615;DHT22;5863;52.832;4.758;2023-12-20T00:12:35;8.50;99.90
11615;DHT22;5863;52.832;4.758;2023-12-20T00:15:02;8.50;99.90
11615;DHT22;5863;52.832;4.758;2023-12-20T00:17:29;8.60;99.90
11615;DHT22;5863;52.832;4.758;2023-12-20T00:19:56;8.50;99.90
11615;DHT22;5863;52.832;4.758;2023-12-20T00:22:23;8.50;99.90
11615;DHT22;5863;52.832;4.758;2023-12-20T00:24:50;8.60;99.90
11615;DHT22;5863;52.832;4.758;2023-12-20T00:27:17;8.60;99.90
11615;DHT22;5863;52.832;4.758;2023-12-20T00:29:45;8.60;99.90
11615;DHT22;5863;52.832;4.758;2023-12-20T00:32:15;8.60;99.90
11615;DHT22;5863;52.832;4.758;2023-12-20T00:34:42;8.60;99.90
11615;DHT22;5863;52.832;4.758;2023-12-20T00:37:09;8.60;99.90
11615;DHT22;5863;52.832;4.758;2023-12-20T00:39:36;8.60;99.90
11615;DHT22;5863;52.832;4.758;2023-12-20T00:42:03;8.60;99.90
11615;DHT22;5863;52.832;4.758;2023-12-20T00:44:30;8.60;99.90
11615;DHT22;5863;52.832;4.758;2023-12-20T00:46:59;8.50;99.90
11615;DHT22;5863;52.832;4.758;2023-12-20T00:49:26;8.50;99.90
11615;DHT22;5863;52.832;4.758;2023-12-20T00:51:53;8.60;99.90
11615;DHT22;5863;52.832;4.758;2023-12-20T00:54:20;8.60;99.90
11615;DHT22;5863;52.832;4.758;2023-12-20T00:56:47;8.60;99.90
11615;DHT22;5863;52.832;4.758;2023-12-20T00:59:13;8.50;99.90
11615;DHT22;5863;52.832;4.758;2023-12-20T01:01:41;8.60;99.90
11615;DHT22;5863;52.832;4.758;2023-12-20T01:04:09;8.60;99.90
11615;DHT22;5863;52.832;4.758;2023-12-20T01:06:36;8.60;99.90
11615;DHT22;5863;52.832;4.758;2023-12-20T01:09:03;8.60;99.90
11615;DHT22;5863;52.832;4.758;2023-12-20T01:11:30;8.60;99.90
11615;DHT22;5863;52.832;4.758;2023-12-20T01:13:57;8.60;99.90
11615;DHT22;5863;52.832;4.758;2023-12-20T01:16:23;8.50;99.90
11615;DHT22;5863;52.832;4.758;2023-12-20T01:18:50;8.50;99.90
11615;DHT22;5863;52.832;4.758;2023-12-20T01:21:19;8.50;99.90
11615;DHT22;5863;52.832;4.758;2023-12-20T01:23:45;8.50;99.90
11615;DHT22;5863;52.832;4.758;2023-12-20T01:26:12;8.50;99.90
11615;DHT22;5863;52.832;4.758;2023-12-20T01:28:41;8.50;99.90
11615;DHT22;5863;52.832;4.758;2023-12-20T01:31:08;8.50;99.90
11615;DHT22;5863;52.832;4.758;2023-12-20T01:33:35;8.60;99.90
11615;DHT22;5863;52.832;4.758;2023-12-20T01:36:03;8.60;99.90
11615;DHT22;5863;52.832;4.758;2023-12-20T01:38:31;8.60;99.90
11615;DHT22;5863;52.832;4.758;2023-12-20T01:40:58;8.60;99.90
11615;DHT22;5863;52.832;4.758;2023-12-20T01:43:25;8.60;99.90
11615;DHT22;5863;52.832;4.758;2023-12-20T01:45:52;8.60;99.90
11615;DHT22;5863;52.832;4.758;2023-12-20T01:48:20;8.60;99.90
11615;DHT22;5863;52.832;4.758;2023-12-20T01:50:48;8.60;99.90
11615;DHT22;5863;52.832;4.758;2023-12-20T01:53:15;8.60;99.90
11615;DHT22;5863;52.832;4.758;2023-12-20T01:55:44;8.60;99.90
11615;DHT22;5863;52.832;4.758;2023-12-20T01:58:12;8.60;99.90
11615;DHT22;5863;52.832;4.758;2023-12-20T02:00:40;8.60;99.90
11615;DHT22;5863;52.832;4.758;2023-12-20T02:03:07;8.60;99.90
11615;DHT22;5863;52.832;4.758;2023-12-20T02:05:35;8.60;99.90
11615;DHT22;5863;52.832;4.758;2023-12-20T02:08:03;8.60;99.90
11615;DHT22;5863;52.832;4.758;2023-12-20T02:10:31;8.50;99.90
11615;DHT22;5863;52.832;4.758;2023-12-20T02:12:59;8.50;99.90
11615;DHT22;5863;52.832;4.758;2023-12-20T02:15:26;8.50;99.90
11615;DHT22;5863;52.832;4.758;2023-12-20T02:17:53;8.50;99.90
11615;DHT22;5863;52.832;4.758;2023-12-20T02:20:21;8.50;99.90
11615;DHT22;5863;52.832;4.758;2023-12-20T02:22:49;8.50;99.90
11615;DHT22;5863;52.832;4.758;2023-12-20T02:25:16;8.60;99.90
11615;DHT22;5863;52.832;4.758;2023-12-20T02:27:42;8.60;99.90
11615;DHT22;5863;52.832;4.758;2023-12-20T02:30:11;8.50;99.90
11615;DHT22;5863;52.832;4.758;2023-12-20T02:32:38;8.50;99.90
11615;DHT22;5863;52.832;4.758;2023-12-20T02:35:05;8.50;99.90
11615;DHT22;5863;52.832;4.758;2023-12-20T02:37:32;8.50;99.90
11615;DHT22;5863;52.832;4.758;2023-12-20T02:40:01;8.60;99.90
11615;DHT22;5863;52.832;4.758;2023-12-20T02:42:29;8.60;99.90
11615;DHT22;5863;52.832;4.758;2023-12-20T02:44:56;8.60;99.90
11615;DHT22;5863;52.832;4.758;2023-12-20T02:47:23;8.50;99.90
11615;DHT22;5863;52.832;4.758;2023-12-20T02:49:50;8.50;99.90
11615;DHT22;5863;52.832;4.758;2023-12-20T02:52:18;8.50;99.90
11615;DHT22;5863;52.832;4.758;2023-12-20T02:54:45;8.50;99.90
11615;DHT22;5863;52.832;4.758;2023-12-20T02:57:13;8.50;99.90
11615;DHT22;5863;52.832;4.758;2023-12-20T02:59:40;8.50;99.90
11615;DHT22;5863;52.832;4.758;2023-12-20T03:02:07;8.50;99.90
11615;DHT22;5863;52.832;4.758;2023-12-20T03:04:33;8.50;99.90
11615;DHT22;5863;52.832;4.758;2023-12-20T03:07:00;8.40;99.90
11615;DHT22;5863;52.832;4.758;2023-12-20T03:09:27;8.50;99.90
11615;DHT22;5863;52.832;4.758;2023-12-20T03:11:54;8.60;99.90
11615;DHT22;5863;52.832;4.758;2023-12-20T03:14:22;8.60;99.90
11615;DHT22;5863;52.832;4.758;2023-12-20T03:16:49;8.70;99.90
11615;DHT22;5863;52.832;4.758;2023-12-20T03:19:16;8.70;99.90
11615;DHT22;5863;52.832;4.758;2023-12-20T03:21:44;8.60;99.90
11615;DHT22;5863;52.832;4.758;2023-12-20T03:24:11;8.60;99.90
11615;DHT22;5863;52.832;4.758;2023-12-20T03:26:38;8.70;99.90
11615;DHT22;5863;52.832;4.758;2023-12-20T03:29:04;8.70;99.90
11615;DHT22;5863;52.832;4.758;2023-12-20T03:31:33;8.70;99.90
11615;DHT22;5863;52.832;4.758;2023-12-20T03:33:59;8.60;99.90
11615;DHT22;5863;52.832;4.758;2023-12-20T03:36:26;8.60;99.90
11615;DHT22;5863;52.832;4.758;2023-12-20T03:38:53;8.70;99.90
11615;DHT22;5863;52.832;4.758;2023-12-20T03:41:20;8.70;99.90
11615;DHT22;5863;52.832;4.758;2023-12-20T03:43:47;8.70;99.90
11615;DHT22;5863;52.832;4.758;2023-12-20T03:46:14;8.70;99.90
11615;DHT22;5863;52.832;4.758;2023-12-20T03:48:42;8.70;99.90
11615;DHT22;5863;52.832;4.758;2023-12-20T03:51:09;8.70;99.90
11615;DHT22;5863;52.832;4.758;2023-12-20T03:53:35;8.70;99.90
11615;DHT22;5863;52.832;4.758;2023-12-20T03:56:03;8.70;99.90
11615;DHT22;5863;52.832;4.758;2023-12-20T03:58:30;8.70;99.90
11615;DHT22;5863;52.832;4.758;2023-12-20T04:00:57;8.70;99.90
11615;DHT22;5863;52.832;4.758;2023-12-20T04:03:24;8.70;99.90
11615;DHT22;5863;52.832;4.758;2023-12-20T04:05:52;8.70;99.90
11615;DHT22;5863;52.832;4.758;2023-12-20T04:08:19;8.70;99.90
11615;DHT22;5863;52.832;4.758;2023-12-20T04:10:46;8.70;99.90
11615;DHT22;5863;52.832;4.758;2023-12-20T04:13:13;8.70;99.90
11615;DHT22;5863;52.832;4.758;2023-12-20T04:15:40;8.70;99.90
11615;DHT22;5863;52.832;4.758;2023-12-20T04:18:07;8.70;99.90
11615;DHT22;5863;52.832;4.758;2023-12-20T04:20:34;8.70;99.90
11615;DHT22;5863;52.832;4.758;2023-12-20T04:23:02;8.70;99.90
11615;DHT22;5863;52.832;4.758;2023-12-20T04:25:29;8.70;99.90
11615;DHT22;5863;52.832;4.758;2023-12-20T04:27:56;8.70;99.90
11615;DHT22;5863;52.832;4.758;2023-12-20T04:30:23;8.70;99.90
11615;DHT22;5863;52.832;4.758;2023-12-20T04:32:49;8.70;99.90
11615;DHT22;5863;52.832;4.758;2023-12-20T04:35:16;8.70;99.90
11615;DHT22;5863;52.832;4.758;2023-12-20T04:37:43;8.70;99.90
11615;DHT22;5863;52.832;4.758;2023-12-20T04:40:11;8.70;99.90
11615;DHT22;5863;52.832;4.758;2023-12-20T04:42:38;8.70;99.90
11615;DHT22;5863;52.832;4.758;2023-12-20T04:45:06;8.70;99.90
11615;DHT22;5863;52.832;4.758;2023-12-20T04:47:33;8.80;99.90
11615;DHT22;5863;52.832;4.758;2023-12-20T04:50:00;8.70;99.90
11615;DHT22;5863;52.832;4.758;2023-12-20T04:52:27;8.70;99.90
11615;DHT22;5863;52.832;4.758;2023-12-20T04:54:54;8.70;99.90
11615;DHT22;5863;52.832;4.758;2023-12-20T04:57:22;8.80;99.90
11615;DHT22;5863;52.832;4.758;2023-12-20T04:59:49;8.80;99.90
11615;DHT22;5863;52.832;4.758;2023-12-20T05:02:16;8.80;99.90
11615;DHT22;5863;52.832;4.758;2023-12-20T05:04:43;8.80;99.90
11615;DHT22;5863;52.832;4.758;2023-12-20T05:07:10;8.80;99.90
11615;DHT22;5863;52.832;4.758;2023-12-20T05:09:37;8.80;99.90
11615;DHT22;5863;52.832;4.758;2023-12-20T05:12:04;8.90;99.90
11615;DHT22;5863;52.832;4.758;2023-12-20T05:14:32;8.90;99.90
11615;DHT22;5863;52.832;4.758;2023-12-20T05:16:59;8.90;99.90
11615;DHT22;5863;52.832;4.758;2023-12-20T05:19:26;8.90;99.90
11615;DHT22;5863;52.832;4.758;2023-12-20T05:21:53;8.90;99.90
11615;DHT22;5863;52.832;4.758;2023-12-20T05:24:19;8.90;99.90
11615;DHT22;5863;52.832;4.758;2023-12-20T05:26:47;8.90;99.90
11615;DHT22;5863;52.832;4.758;2023-12-20T05:29:14;8.90;99.90
11615;DHT22;5863;52.832;4.758;2023-12-20T05:31:42;8.90;99.90
11615;DHT22;5863;52.832;4.758;2023-12-20T05:34:09;8.90;99.90
11615;DHT22;5863;52.832;4.758;2023-12-20T05:36:36;8.90;99.90
11615;DHT22;5863;52.832;4.758;2023-12-20T05:39:03;9.00;99.90
11615;DHT22;5863;52.832;4.758;2023-12-20T05:41:30;8.90;99.90
11615;DHT22;5863;52.832;4.758;2023-12-20T05:43:57;9.00;99.90
11615;DHT22;5863;52.832;4.758;2023-12-20T05:46:24;9.00;99.90
11615;DHT22;5863;52.832;4.758;2023-12-20T05:48:53;9.00;99.90
11615;DHT22;5863;52.832;4.758;2023-12-20T05:51:19;9.00;99.90
11615;DHT22;5863;52.832;4.758;2023-12-20T05:53:46;9.00;99.90
11615;DHT22;5863;52.832;4.758;2023-12-20T05:56:15;9.00;99.90
11615;DHT22;5863;52.832;4.758;2023-12-20T05:58:42;8.90;99.90
11615;DHT22;5863;52.832;4.758;2023-12-20T06:01:09;8.90;99.90
11615;DHT22;5863;52.832;4.758;2023-12-20T06:03:36;8.90;99.90
11615;DHT22;5863;52.832;4.758;2023-12-20T06:06:06;8.90;99.90
11615;DHT22;5863;52.832;4.758;2023-12-20T06:08:33;8.90;99.90
11615;DHT22;5863;52.832;4.758;2023-12-20T06:11:00;8.80;99.90
11615;DHT22;5863;52.832;4.758;2023-12-20T06:13:27;8.80;99.90
11615;DHT22;5863;52.832;4.758;2023-12-20T06:15:54;8.80;99.90
11615;DHT22;5863;52.832;4.758;2023-12-20T06:18:21;8.80;99.90
11615;DHT22;5863;52.832;4.758;2023-12-20T06:20:48;8.80;99.90
11615;DHT22;5863;52.832;4.758;2023-12-20T06:23:16;8.70;99.90
11615;DHT22;5863;52.832;4.758;2023-12-20T06:25:43;8.80;99.90
11615;DHT22;5863;52.832;4.758;2023-12-20T06:28:10;8.80;99.90
11615;DHT22;5863;52.832;4.758;2023-12-20T06:30:40;8.80;99.90
11615;DHT22;5863;52.832;4.758;2023-12-20T06:33:06;8.80;99.90
11615;DHT22;5863;52.832;4.758;2023-12-20T06:35:35;8.70;99.90
11615;DHT22;5863;52.832;4.758;2023-12-20T06:38:02;8.70;99.90
11615;DHT22;5863;52.832;4.758;2023-12-20T06:40:30;8.70;99.90
11615;DHT22;5863;52.832;4.758;2023-12-20T06:42:57;8.70;99.90
11615;DHT22;5863;52.832;4.758;2023-12-20T06:45:25;8.70;99.90
11615;DHT22;5863;52.832;4.758;2023-12-20T06:47:52;8.70;99.90
11615;DHT22;5863;52.832;4.758;2023-12-20T06:50:20;8.80;99.90
11615;DHT22;5863;52.832;4.758;2023-12-20T06:52:47;8.80;99.90
11615;DHT22;5863;52.832;4.758;2023-12-20T06:55:14;8.80;99.90
11615;DHT22;5863;52.832;4.758;2023-12-20T06:57:42;8.80;99.90
11615;DHT22;5863;52.832;4.758;2023-12-20T07:00:11;8.80;99.90
11615;DHT22;5863;52.832;4.758;2023-12-20T07:02:38;8.80;99.90
11615;DHT22;5863;52.832;4.758;2023-12-20T07:05:05;8.80;99.90
11615;DHT22;5863;52.832;4.758;2023-12-20T07:07:32;8.80;99.90
11615;DHT22;5863;52.832;4.758;2023-12-20T07:09:59;8.80;99.90
11615;DHT22;5863;52.832;4.758;2023-12-20T07:12:26;8.90;99.90
11615;DHT22;5863;52.832;4.758;2023-12-20T07:14:55;8.90;99.90
11615;DHT22;5863;52.832;4.758;2023-12-20T07:17:22;9.00;99.90
11615;DHT22;5863;52.832;4.758;2023-12-20T07:19:49;9.00;99.90
11615;DHT22;5863;52.832;4.758;2023-12-20T07:22:16;9.00;99.90
11615;DHT22;5863;52.832;4.758;2023-12-20T07:24:43;9.00;99.90
11615;DHT22;5863;52.832;4.758;2023-12-20T07:27:09;8.90;99.90
11615;DHT22;5863;52.832;4.758;2023-12-20T07:29:36;9.00;99.90
11615;DHT22;5863;52.832;4.758;2023-12-20T07:32:05;9.10;99.90
11615;DHT22;5863;52.832;4.758;2023-12-20T07:34:32;9.00;99.90
11615;DHT22;5863;52.832;4.758;2023-12-20T07:36:59;9.00;99.90
11615;DHT22;5863;52.832;4.758;2023-12-20T07:39:26;9.10;99.90
11615;DHT22;5863;52.832;4.758;2023-12-20T07:41:53;9.10;99.90
11615;DHT22;5863;52.832;4.758;2023-12-20T07:44:20;9.10;99.90
11615;DHT22;5863;52.832;4.758;2023-12-20T07:46:47;9.10;99.90
11615;DHT22;5863;52.832;4.758;2023-12-20T07:49:15;9.10;99.90
11615;DHT22;5863;52.832;4.758;2023-12-20T07:51:42;9.10;99.90
11615;DHT22;5863;52.832;4.758;2023-12-20T07:54:09;9.10;99.90
11615;DHT22;5863;52.832;4.758;2023-12-20T07:56:36;9.20;99.90
11615;DHT22;5863;52.832;4.758;2023-12-20T07:59:03;9.20;99.90
11615;DHT22;5863;52.832;4.758;2023-12-20T08:01:29;9.20;99.90
11615;DHT22;5863;52.832;4.758;2023-12-20T08:03:56;9.20;99.90
11615;DHT22;5863;52.832;4.758;2023-12-20T08:06:25;9.20;99.90
11615;DHT22;5863;52.832;4.758;2023-12-20T08:08:52;9.20;99.90
11615;DHT22;5863;52.832;4.758;2023-12-20T08:11:18;9.20;99.90
11615;DHT22;5863;52.832;4.758;2023-12-20T08:13:45;9.20;99.90
11615;DHT22;5863;52.832;4.758;2023-12-20T08:16:12;9.20;99.90
11615;DHT22;5863;52.832;4.758;2023-12-20T08:18:41;9.30;99.90
11615;DHT22;5863;52.832;4.758;2023-12-20T08:21:08;9.40;99.90
11615;DHT22;5863;52.832;4.758;2023-12-20T08:23:36;9.40;99.90
11615;DHT22;5863;52.832;4.758;2023-12-20T08:26:04;9.30;99.90
11615;DHT22;5863;52.832;4.758;2023-12-20T08:28:31;9.40;99.90
11615;DHT22;5863;52.832;4.758;2023-12-20T08:30:58;9.40;99.90
11615;DHT22;5863;52.832;4.758;2023-12-20T08:33:25;9.40;99.90
11615;DHT22;5863;52.832;4.758;2023-12-20T08:35:52;9.40;99.90
11615;DHT22;5863;52.832;4.758;2023-12-20T08:38:19;9.40;99.90
11615;DHT22;5863;52.832;4.758;2023-12-20T08:40:47;9.40;99.90
11615;DHT22;5863;52.832;4.758;2023-12-20T08:43:15;9.40;99.90
11615;DHT22;5863;52.832;4.758;2023-12-20T08:45:42;9.40;99.90
11615;DHT22;5863;52.832;4.758;2023-12-20T08:48:08;9.50;99.90
11615;DHT22;5863;52.832;4.758;2023-12-20T08:50:35;9.50;99.90
11615;DHT22;5863;52.832;4.758;2023-12-20T08:53:02;9.50;99.90
11615;DHT22;5863;52.832;4.758;2023-12-20T08:55:29;9.60;99.90
11615;DHT22;5863;52.832;4.758;2023-12-20T08:57:58;9.60;99.90
11615;DHT22;5863;52.832;4.758;2023-12-20T09:00:25;9.60;99.90
11615;DHT22;5863;52.832;4.758;2023-12-20T09:02:53;9.60;99.90
11615;DHT22;5863;52.832;4.758;2023-12-20T09:05:20;9.50;99.90
11615;DHT22;5863;52.832;4.758;2023-12-20T09:07:48;9.50;99.90
11615;DHT22;5863;52.832;4.758;2023-12-20T09:10:14;9.50;99.90
11615;DHT22;5863;52.832;4.758;2023-12-20T09:12:41;9.60;99.90
11615;DHT22;5863;52.832;4.758;2023-12-20T09:15:10;9.60;99.90
11615;DHT22;5863;52.832;4.758;2023-12-20T09:17:36;9.60;99.90
11615;DHT22;5863;52.832;4.758;2023-12-20T09:20:04;9.70;99.90
11615;DHT22;5863;52.832;4.758;2023-12-20T09:22:33;9.70;99.90
11615;DHT22;5863;52.832;4.758;2023-12-20T09:25:00;9.70;99.90
11615;DHT22;5863;52.832;4.758;2023-12-20T09:27:27;9.70;99.90
11615;DHT22;5863;52.832;4.758;2023-12-20T09:29:54;9.70;99.90
11615;DHT22;5863;52.832;4.758;2023-12-20T09:32:22;9.80;99.90
11615;DHT22;5863;52.832;4.758;2023-12-20T09:34:49;9.80;99.90
11615;DHT22;5863;52.832;4.758;2023-12-20T09:37:16;9.80;99.90
11615;DHT22;5863;52.832;4.758;2023-12-20T09:39:43;9.80;99.90
11615;DHT22;5863;52.832;4.758;2023-12-20T09:42:11;9.70;99.90
11615;DHT22;5863;52.832;4.758;2023-12-20T09:44:39;9.70;99.90
11615;DHT22;5863;52.832;4.758;2023-12-20T09:47:08;9.80;99.90
11615;DHT22;5863;52.832;4.758;2023-12-20T09:49:36;9.80;99.90
11615;DHT22;5863;52.832;4.758;2023-12-20T09:52:05;9.90;99.90
11615;DHT22;5863;52.832;4.758;2023-12-20T09:54:32;9.80;99.90
11615;DHT22;5863;52.832;4.758;2023-12-20T09:56:59;9.80;99.90
11615;DHT22;5863;52.832;4.758;2023-12-20T09:59:26;9.80;99.90
11615;DHT22;5863;52.832;4.758;2023-12-20T10:01:55;9.80;99.90
11615;DHT22;5863;52.832;4.758;2023-12-20T10:04:23;9.80;99.90
11615;DHT22;5863;52.832;4.758;2023-12-20T10:06:52;9.80;99.90
11615;DHT22;5863;52.832;4.758;2023-12-20T10:09:19;9.80;99.90
11615;DHT22;5863;52.832;4.758;2023-12-20T10:11:46;9.80;99.90
11615;DHT22;5863;52.832;4.758;2023-12-20T10:14:13;9.80;99.90
11615;DHT22;5863;52.832;4.758;2023-12-20T10:16:41;9.90;99.90
11615;DHT22;5863;52.832;4.758;2023-12-20T10:19:08;9.90;99.90
11615;DHT22;5863;52.832;4.758;2023-12-20T10:21:35;10.00;99.90
11615;DHT22;5863;52.832;4.758;2023-12-20T10:24:03;10.00;99.90
11615;DHT22;5863;52.832;4.758;2023-12-20T10:26:31;9.90;99.90
11615;DHT22;5863;52.832;4.758;2023-12-20T10:29:00;9.90;99.90
11615;DHT22;5863;52.832;4.758;2023-12-20T10:31:29;10.00;99.90
11615;DHT22;5863;52.832;4.758;2023-12-20T10:33:57;10.00;99.90
11615;DHT22;5863;52.832;4.758;2023-12-20T10:36:25;10.10;99.90
11615;DHT22;5863;52.832;4.758;2023-12-20T10:38:53;10.20;99.90
11615;DHT22;5863;52.832;4.758;2023-12-20T10:41:25;10.30;99.90
11615;DHT22;5863;52.832;4.758;2023-12-20T10:43:55;10.20;99.90
11615;DHT22;5863;52.832;4.758;2023-12-20T10:46:22;10.20;99.90
11615;DHT22;5863;52.832;4.758;2023-12-20T10:48:52;10.20;99.90
11615;DHT22;5863;52.832;4.758;2023-12-20T10:51:20;10.20;99.90
11615;DHT22;5863;52.832;4.758;2023-12-20T10:53:48;10.30;99.90
11615;DHT22;5863;52.832;4.758;2023-12-20T10:56:17;10.30;99.90
11615;DHT22;5863;52.832;4.758;2023-12-20T10:58:46;10.30;99.90
11615;DHT22;5863;52.832;4.758;2023-12-20T11:01:14;10.40;99.90
11615;DHT22;5863;52.832;4.758;2023-12-20T11:03:44;10.40;99.90
11615;DHT22;5863;52.832;4.758;2023-12-20T11:06:22;10.30;99.90
11615;DHT22;5863;52.832;4.758;2023-12-20T11:08:55;10.30;99.90
11615;DHT22;5863;52.832;4.758;2023-12-20T11:11:40;10.40;99.90
11615;DHT22;5863;52.832;4.758;2023-12-20T11:14:15;10.30;99.90
11615;DHT22;5863;52.832;4.758;2023-12-20T11:16:44;10.40;99.90
11615;DHT22;5863;52.832;4.758;2023-12-20T11:19:11;10.30;99.90
11615;DHT22;5863;52.832;4.758;2023-12-20T11:21:40;10.40;99.90
11615;DHT22;5863;52.832;4.758;2023-12-20T11:24:07;10.40;99.90
11615;DHT22;5863;52.832;4.758;2023-12-20T11:26:34;10.40;99.90
11615;DHT22;5863;52.832;4.758;2023-12-20T11:29:33;10.30;99.90
11615;DHT22;5863;52.832;4.758;2023-12-20T11:32:02;10.40;99.90
11615;DHT22;5863;52.832;4.758;2023-12-20T11:34:31;10.40;99.90
11615;DHT22;5863;52.832;4.758;2023-12-20T11:36:59;10.40;99.90
11615;DHT22;5863;52.832;4.758;2023-12-20T11:39:27;10.40;99.90
11615;DHT22;5863;52.832;4.758;2023-12-20T11:41:55;10.30;99.90
11615;DHT22;5863;52.832;4.758;2023-12-20T11:44:25;10.30;99.90
11615;DHT22;5863;52.832;4.758;2023-12-20T11:46:55;10.40;99.90
11615;DHT22;5863;52.832;4.758;2023-12-20T11:49:25;10.30;99.90
11615;DHT22;5863;52.832;4.758;2023-12-20T11:51:51;10.40;99.90
11615;DHT22;5863;52.832;4.758;2023-12-20T11:54:18;10.40;99.90
11615;DHT22;5863;52.832;4.758;2023-12-20T11:56:46;10.30;99.90
11615;DHT22;5863;52.832;4.758;2023-12-20T11:59:14;10.50;99.90
11615;DHT22;5863;52.832;4.758;2023-12-20T12:01:48;10.40;99.90
11615;DHT22;5863;52.832;4.758;2023-12-20T12:04:17;10.50;99.90
11615;DHT22;5863;52.832;4.758;2023-12-20T12:06:44;10.60;99.90
11615;DHT22;5863;52.832;4.758;2023-12-20T12:09:12;10.60;99.90
11615;DHT22;5863;52.832;4.758;2023-12-20T12:11:39;10.60;99.90
11615;DHT22;5863;52.832;4.758;2023-12-20T12:14:07;10.60;99.90
11615;DHT22;5863;52.832;4.758;2023-12-20T12:16:34;10.60;99.90
11615;DHT22;5863;52.832;4.758;2023-12-20T12:19:01;10.60;99.90
11615;DHT22;5863;52.832;4.758;2023-12-20T12:21:29;10.50;99.90
11615;DHT22;5863;52.832;4.758;2023-12-20T12:24:07;10.50;99.90
11615;DHT22;5863;52.832;4.758;2023-12-20T12:26:33;10.50;99.90
11615;DHT22;5863;52.832;4.758;2023-12-20T12:29:00;10.50;99.90
11615;DHT22;5863;52.832;4.758;2023-12-20T12:31:28;10.40;99.90
11615;DHT22;5863;52.832;4.758;2023-12-20T12:33:56;10.40;99.90
11615;DHT22;5863;52.832;4.758;2023-12-20T12:36:23;10.40;99.90
11615;DHT22;5863;52.832;4.758;2023-12-20T12:38:51;10.30;99.90
11615;DHT22;5863;52.832;4.758;2023-12-20T12:41:18;10.40;99.90
11615;DHT22;5863;52.832;4.758;2023-12-20T12:43:44;10.40;99.90
11615;DHT22;5863;52.832;4.758;2023-12-20T12:46:11;10.30;99.90
11615;DHT22;5863;52.832;4.758;2023-12-20T12:48:38;10.40;99.90
11615;DHT22;5863;52.832;4.758;2023-12-20T12:51:05;10.30;99.90
11615;DHT22;5863;52.832;4.758;2023-12-20T12:53:33;10.30;99.90
11615;DHT22;5863;52.832;4.758;2023-12-20T12:56:01;10.30;99.90
11615;DHT22;5863;52.832;4.758;2023-12-20T12:58:29;10.30;99.90
11615;DHT22;5863;52.832;4.758;2023-12-20T13:00:55;10.20;99.90
11615;DHT22;5863;52.832;4.758;2023-12-20T13:03:22;10.20;99.90
11615;DHT22;5863;52.832;4.758;2023-12-20T13:05:49;10.20;99.90
11615;DHT22;5863;52.832;4.758;2023-12-20T13:08:16;10.30;99.90
11615;DHT22;5863;52.832;4.758;2023-12-20T13:10:43;10.30;99.90
11615;DHT22;5863;52.832;4.758;2023-12-20T13:13:11;10.30;99.90
11615;DHT22;5863;52.832;4.758;2023-12-20T13:15:38;10.20;99.90
11615;DHT22;5863;52.832;4.758;2023-12-20T13:18:06;10.20;99.90
11615;DHT22;5863;52.832;4.758;2023-12-20T13:20:33;10.20;99.90
11615;DHT22;5863;52.832;4.758;2023-12-20T13:23:00;10.20;99.90
11615;DHT22;5863;52.832;4.758;2023-12-20T13:25:26;10.20;99.90
11615;DHT22;5863;52.832;4.758;2023-12-20T13:27:53;10.30;99.90
11615;DHT22;5863;52.832;4.758;2023-12-20T13:30:22;10.30;99.90
11615;DHT22;5863;52.832;4.758;2023-12-20T13:32:48;10.20;99.90
11615;DHT22;5863;52.832;4.758;2023-12-20T13:35:15;10.20;99.90
11615;DHT22;5863;52.832;4.758;2023-12-20T13:37:42;10.20;99.90
11615;DHT22;5863;52.832;4.758;2023-12-20T13:40:10;10.20;99.90
11615;DHT22;5863;52.832;4.758;2023-12-20T13:42:38;10.20;99.90
11615;DHT22;5863;52.832;4.758;2023-12-20T13:45:06;10.20;99.90
11615;DHT22;5863;52.832;4.758;2023-12-20T13:47:35;10.20;99.90
11615;DHT22;5863;52.832;4.758;2023-12-20T13:50:02;10.20;99.90
11615;DHT22;5863;52.832;4.758;2023-12-20T13:52:29;10.30;99.90
11615;DHT22;5863;52.832;4.758;2023-12-20T13:54:56;10.30;99.90
11615;DHT22;5863;52.832;4.758;2023-12-20T13:57:23;10.30;99.90
11615;DHT22;5863;52.832;4.758;2023-12-20T13:59:50;10.30;99.90
11615;DHT22;5863;52.832;4.758;2023-12-20T14:02:17;10.30;99.90
11615;DHT22;5863;52.832;4.758;2023-12-20T14:04:45;10.30;99.90
11615;DHT22;5863;52.832;4.758;2023-12-20T14:07:14;10.30;99.90
11615;DHT22;5863;52.832;4.758;2023-12-20T14:09:41;10.20;99.90
11615;DHT22;5863;52.832;4.758;2023-12-20T14:12:10;10.30;99.90
11615;DHT22;5863;52.832;4.758;2023-12-20T14:14:37;10.20;99.90
11615;DHT22;5863;52.832;4.758;2023-12-20T14:17:04;10.20;99.90
11615;DHT22;5863;52.832;4.758;2023-12-20T14:19:32;10.30;99.90
11615;DHT22;5863;52.832;4.758;2023-12-20T14:22:00;10.20;99.90
11615;DHT22;5863;52.832;4.758;2023-12-20T14:24:27;10.20;99.90
11615;DHT22;5863;52.832;4.758;2023-12-20T14:26:54;10.10;99.90
11615;DHT22;5863;52.832;4.758;2023-12-20T14:29:21;10.10;99.90
11615;DHT22;5863;52.832;4.758;2023-12-20T14:31:48;10.10;99.90
11615;DHT22;5863;52.832;4.758;2023-12-20T14:34:15;10.10;99.90
11615;DHT22;5863;52.832;4.758;2023-12-20T14:36:42;10.20;99.90
11615;DHT22;5863;52.832;4.758;2023-12-20T14:39:10;10.10;99.90
11615;DHT22;5863;52.832;4.758;2023-12-20T14:41:38;10.10;99.90
11615;DHT22;5863;52.832;4.758;2023-12-20T14:44:06;10.10;99.90
11615;DHT22;5863;52.832;4.758;2023-12-20T14:46:33;10.10;99.90
11615;DHT22;5863;52.832;4.758;2023-12-20T14:49:00;10.10;99.90
11615;DHT22;5863;52.832;4.758;2023-12-20T14:51:28;10.10;99.90
11615;DHT22;5863;52.832;4.758;2023-12-20T14:53:58;10.00;99.90
11615;DHT22;5863;52.832;4.758;2023-12-20T14:56:26;10.10;99.90
11615;DHT22;5863;52.832;4.758;2023-12-20T14:58:53;10.10;99.90
11615;DHT22;5863;52.832;4.758;2023-12-20T15:01:20;10.10;99.90
11615;DHT22;5863;52.832;4.758;2023-12-20T15:03:47;10.00;99.90
11615;DHT22;5863;52.832;4.758;2023-12-20T15:06:14;10.10;99.90
11615;DHT22;5863;52.832;4.758;2023-12-20T15:08:41;10.10;99.90
11615;DHT22;5863;52.832;4.758;2023-12-20T15:11:08;10.10;99.90
11615;DHT22;5863;52.832;4.758;2023-12-20T15:13:36;10.00;99.90
11615;DHT22;5863;52.832;4.758;2023-12-20T15:16:04;10.00;99.90
11615;DHT22;5863;52.832;4.758;2023-12-20T15:18:31;10.00;99.90
11615;DHT22;5863;52.832;4.758;2023-12-20T15:20:58;10.00;99.90
11615;DHT22;5863;52.832;4.758;2023-12-20T15:23:25;10.10;99.90
11615;DHT22;5863;52.832;4.758;2023-12-20T15:25:54;10.10;99.90
11615;DHT22;5863;52.832;4.758;2023-12-20T15:28:21;10.00;99.90
11615;DHT22;5863;52.832;4.758;2023-12-20T15:30:49;10.00;99.90
11615;DHT22;5863;52.832;4.758;2023-12-20T15:33:16;10.00;99.90
11615;DHT22;5863;52.832;4.758;2023-12-20T15:35:43;10.00;99.90
11615;DHT22;5863;52.832;4.758;2023-12-20T15:38:09;10.00;99.90
11615;DHT22;5863;52.832;4.758;2023-12-20T15:40:37;10.00;99.90
11615;DHT22;5863;52.832;4.758;2023-12-20T15:43:04;10.00;99.90
11615;DHT22;5863;52.832;4.758;2023-12-20T15:45:31;10.00;99.90
11615;DHT22;5863;52.832;4.758;2023-12-20T15:47:59;10.00;99.90
11615;DHT22;5863;52.832;4.758;2023-12-20T15:50:26;10.00;99.90
11615;DHT22;5863;52.832;4.758;2023-12-20T15:52:53;10.00;99.90
11615;DHT22;5863;52.832;4.758;2023-12-20T15:55:20;10.00;99.90
11615;DHT22;5863;52.832;4.758;2023-12-20T15:57:47;10.00;99.90